createdAt,value
2023-01-13T00:01:38.280Z,5.70
2023-01-13T00:04:05.038Z,5.73
2023-01-13T00:06:31.610Z,5.72
2023-01-13T00:08:58.039Z,5.72
2023-01-13T00:11:25.990Z,5.77
2023-01-13T00:13:52.330Z,5.82
2023-01-13T00:16:19.442Z,5.78
2023-01-13T00:18:46.784Z,5.82
2023-01-13T00:21:16.069Z,5.78
2023-01-13T00:23:42.999Z,5.82
2023-01-13T00:26:16.190Z,5.89
2023-01-13T00:28:42.625Z,5.83
2023-01-13T00:31:11.417Z,5.90
2023-01-13T00:33:38.670Z,5.98
2023-01-13T00:36:07.249Z,5.92
2023-01-13T00:38:35.773Z,5.99
2023-01-13T00:41:06.844Z,6.02
2023-01-13T00:43:35.107Z,5.99
2023-01-13T00:46:02.048Z,5.98
2023-01-13T00:48:29.643Z,5.96
2023-01-13T00:50:56.887Z,6.04
2023-01-13T00:53:23.445Z,5.99
2023-01-13T00:55:50.047Z,5.97
2023-01-13T00:58:16.409Z,5.96
2023-01-13T01:00:42.795Z,6.03
2023-01-13T01:03:12.162Z,5.99
2023-01-13T01:05:39.885Z,5.98
2023-01-13T01:08:06.281Z,5.94
2023-01-13T01:10:32.695Z,5.98
2023-01-13T01:12:59.065Z,5.98
2023-01-13T01:15:25.535Z,5.95
2023-01-13T01:17:52.140Z,5.95
2023-01-13T01:20:18.614Z,5.98
2023-01-13T01:22:44.990Z,5.98
2023-01-13T01:25:11.325Z,6.04
2023-01-13T01:27:37.724Z,6.03
2023-01-13T01:30:04.507Z,6.02
2023-01-13T01:32:33.276Z,6.04
2023-01-13T01:34:59.630Z,5.97
2023-01-13T01:37:26.056Z,5.94
2023-01-13T01:39:52.414Z,5.94
2023-01-13T01:42:37.677Z,5.91
2023-01-13T01:45:22.738Z,5.89
2023-01-13T01:47:55.208Z,5.91
2023-01-13T01:50:22.639Z,5.94
2023-01-13T01:53:24.912Z,5.89
2023-01-13T01:55:51.367Z,5.84
2023-01-13T01:58:38.049Z,5.87
2023-01-13T02:01:04.745Z,5.81
2023-01-13T02:03:31.256Z,5.81
2023-01-13T02:05:57.658Z,5.84
2023-01-13T02:08:24.216Z,5.86
2023-01-13T02:10:53.847Z,5.86
2023-01-13T02:13:22.569Z,5.87
2023-01-13T02:16:11.854Z,5.90
2023-01-13T02:19:04.237Z,5.92
2023-01-13T02:22:01.655Z,5.92
2023-01-13T02:24:54.413Z,5.95
2023-01-13T02:27:43.936Z,5.92
2023-01-13T02:30:49.470Z,6.07
2023-01-13T02:33:34.346Z,6.03
2023-01-13T02:36:24.787Z,6.02
2023-01-13T02:39:16.413Z,6.11
2023-01-13T02:42:21.599Z,6.19
2023-01-13T02:44:55.856Z,6.18
2023-01-13T02:47:26.313Z,6.22
2023-01-13T02:50:05.977Z,6.21
2023-01-13T02:52:44.196Z,6.19
2023-01-13T02:55:19.695Z,6.20
2023-01-13T02:57:48.257Z,6.20
2023-01-13T03:00:17.032Z,6.17
2023-01-13T03:02:43.434Z,6.14
2023-01-13T03:05:14.824Z,6.18
2023-01-13T03:08:03.558Z,6.19
2023-01-13T03:10:34.221Z,6.19
2023-01-13T03:13:36.831Z,6.25
2023-01-13T03:16:27.870Z,6.26
2023-01-13T03:19:15.943Z,6.24
2023-01-13T03:21:56.650Z,6.28
2023-01-13T03:24:34.349Z,6.31
2023-01-13T03:27:15.878Z,6.32
2023-01-13T03:30:14.114Z,6.37
2023-01-13T03:32:49.150Z,6.36
2023-01-13T03:35:32.781Z,6.40
2023-01-13T03:38:23.876Z,6.42
2023-01-13T03:40:56.169Z,6.36
2023-01-13T03:44:03.527Z,6.32
2023-01-13T03:46:37.196Z,6.36
2023-01-13T03:49:07.252Z,6.34
2023-01-13T03:51:35.983Z,6.34
2023-01-13T03:54:08.889Z,6.41
2023-01-13T03:56:42.732Z,6.37
2023-01-13T03:59:14.365Z,6.32
2023-01-13T04:02:01.569Z,6.37
2023-01-13T04:04:34.770Z,6.40
2023-01-13T04:07:28.761Z,6.39
2023-01-13T04:10:02.519Z,6.43
2023-01-13T04:12:51.985Z,6.38
2023-01-13T04:15:22.061Z,6.47
2023-01-13T04:17:48.426Z,6.44
2023-01-13T04:20:15.242Z,6.45
2023-01-13T04:22:41.580Z,6.42
2023-01-13T04:25:09.024Z,6.42
2023-01-13T04:27:35.397Z,6.46
2023-01-13T04:30:01.792Z,6.44
2023-01-13T04:32:28.156Z,6.43
2023-01-13T04:34:54.544Z,6.48
2023-01-13T04:37:21.188Z,6.46
2023-01-13T04:39:47.579Z,6.47
2023-01-13T04:42:13.984Z,6.45
2023-01-13T04:44:40.299Z,6.40
2023-01-13T04:47:06.668Z,6.54
2023-01-13T04:49:33.229Z,6.53
2023-01-13T04:51:59.640Z,6.52
2023-01-13T04:54:25.991Z,6.56
2023-01-13T04:56:52.343Z,6.63
2023-01-13T04:59:18.734Z,6.60
2023-01-13T05:01:45.192Z,6.56
2023-01-13T05:04:11.789Z,6.60
2023-01-13T05:06:38.184Z,6.67
2023-01-13T05:09:04.589Z,6.63
2023-01-13T05:11:49.659Z,6.59
2023-01-13T05:14:34.953Z,6.62
2023-01-13T05:17:01.783Z,6.64
2023-01-13T05:19:33.636Z,6.64
2023-01-13T05:22:19.693Z,6.70
2023-01-13T05:25:05.156Z,6.75
2023-01-13T05:27:32.651Z,6.77
2023-01-13T05:29:59.346Z,6.73
2023-01-13T05:32:27.983Z,6.73
2023-01-13T05:34:55.666Z,6.76
2023-01-13T05:37:23.083Z,6.74
2023-01-13T05:40:08.073Z,6.79
2023-01-13T05:42:53.337Z,6.73
2023-01-13T05:45:19.725Z,6.76
2023-01-13T05:47:46.097Z,6.74
2023-01-13T05:50:12.583Z,6.75
2023-01-13T05:52:39.043Z,6.77
2023-01-13T05:55:05.945Z,6.80
2023-01-13T05:57:32.313Z,6.82
2023-01-13T05:59:58.671Z,6.84
2023-01-13T06:02:26.466Z,6.91
2023-01-13T06:04:53.215Z,6.93
2023-01-13T06:07:19.648Z,6.90
2023-01-13T06:09:45.990Z,6.92
2023-01-13T06:12:13.075Z,6.95
2023-01-13T06:14:42.580Z,6.95
2023-01-13T06:17:10.657Z,6.99
2023-01-13T06:19:37.395Z,6.99
2023-01-13T06:22:11.692Z,6.99
2023-01-13T06:24:38.050Z,6.90
2023-01-13T06:27:06.494Z,6.92
2023-01-13T06:29:33.455Z,6.94
2023-01-13T06:32:04.920Z,6.99
2023-01-13T06:34:32.118Z,6.97
2023-01-13T06:36:58.705Z,6.92
2023-01-13T06:39:30.597Z,6.99
2023-01-13T06:42:17.109Z,6.99
2023-01-13T06:44:45.210Z,6.99
2023-01-13T06:47:11.675Z,7.02
2023-01-13T06:49:38.025Z,7.04
2023-01-13T06:52:04.637Z,7.00
2023-01-13T06:54:31.084Z,7.02
2023-01-13T06:56:57.473Z,7.01
2023-01-13T06:59:25.137Z,7.02
2023-01-13T07:01:51.614Z,7.11
2023-01-13T07:04:18.815Z,7.10
2023-01-13T07:06:45.351Z,7.06
2023-01-13T07:09:11.811Z,7.10
2023-01-13T07:11:38.242Z,7.13
2023-01-13T07:14:23.421Z,7.17
2023-01-13T07:16:52.197Z,7.08
2023-01-13T07:19:23.582Z,7.12
2023-01-13T07:21:52.064Z,7.10
2023-01-13T07:24:19.349Z,7.07
2023-01-13T07:26:46.093Z,7.11
2023-01-13T07:29:12.672Z,7.08
2023-01-13T07:31:39.765Z,7.01
2023-01-13T07:34:07.336Z,7.02
2023-01-13T07:36:34.072Z,7.00
2023-01-13T07:39:00.826Z,7.10
2023-01-13T07:41:45.884Z,7.11
2023-01-13T07:44:12.387Z,7.03
2023-01-13T07:46:39.418Z,7.02
2023-01-13T07:49:06.805Z,7.11
2023-01-13T07:51:37.369Z,7.13
2023-01-13T07:54:04.004Z,7.14
2023-01-13T07:56:30.354Z,7.10
2023-01-13T07:58:59.261Z,7.14
2023-01-13T08:01:27.671Z,7.14
2023-01-13T08:03:56.118Z,7.23
2023-01-13T08:06:22.569Z,7.26
2023-01-13T08:08:49.120Z,7.21
2023-01-13T08:11:15.524Z,7.22
2023-01-13T08:13:41.885Z,7.28
2023-01-13T08:16:11.490Z,7.35
2023-01-13T08:18:39.128Z,7.37
2023-01-13T08:21:09.026Z,7.40
2023-01-13T08:23:36.090Z,7.44
2023-01-13T08:26:07.106Z,7.48
2023-01-13T08:28:33.930Z,7.49
2023-01-13T08:31:02.401Z,7.49
2023-01-13T08:33:29.563Z,7.52
2023-01-13T08:35:56.277Z,7.59
2023-01-13T08:38:23.634Z,7.57
2023-01-13T08:40:50.660Z,7.60
2023-01-13T08:43:16.998Z,7.59
2023-01-13T08:45:43.444Z,7.62
2023-01-13T08:48:09.939Z,7.63
2023-01-13T08:50:36.286Z,7.64
2023-01-13T08:53:02.709Z,7.71
2023-01-13T08:55:29.101Z,7.64
2023-01-13T08:58:06.449Z,7.74
2023-01-13T09:00:40.900Z,7.79
2023-01-13T09:03:07.261Z,7.77
2023-01-13T09:05:35.342Z,7.74
2023-01-13T09:08:01.711Z,7.74
2023-01-13T09:10:28.095Z,7.77
2023-01-13T09:13:12.609Z,7.77
2023-01-13T09:15:44.940Z,7.81
2023-01-13T09:18:12.250Z,7.78
2023-01-13T09:20:39.335Z,7.71
2023-01-13T09:23:08.803Z,7.77
2023-01-13T09:25:39.048Z,7.79
2023-01-13T09:28:05.891Z,7.81
2023-01-13T09:30:32.377Z,7.84
2023-01-13T09:33:18.271Z,7.90
2023-01-13T09:35:44.687Z,7.97
2023-01-13T09:38:11.090Z,8.00
2023-01-13T09:40:39.592Z,7.98
2023-01-13T09:43:36.783Z,7.99
2023-01-13T09:46:34.204Z,7.95
2023-01-13T09:49:03.476Z,7.90
2023-01-13T09:51:45.961Z,7.82
2023-01-13T09:54:27.805Z,7.84
2023-01-13T09:56:54.229Z,7.83
2023-01-13T09:59:20.657Z,7.84
2023-01-13T10:01:53.108Z,7.84
2023-01-13T10:04:19.744Z,7.90
2023-01-13T10:06:52.484Z,7.91
2023-01-13T10:09:25.699Z,7.99
2023-01-13T10:12:14.525Z,8.06
2023-01-13T10:14:54.803Z,8.22
2023-01-13T10:17:32.313Z,8.30
2023-01-13T10:20:17.082Z,8.39
2023-01-13T10:22:59.137Z,8.40
2023-01-13T10:25:40.273Z,8.44
2023-01-13T10:28:13.079Z,8.47
2023-01-13T10:30:42.195Z,8.48
2023-01-13T10:33:34.625Z,8.57
2023-01-13T10:36:14.360Z,8.77
2023-01-13T10:38:45.982Z,8.95
2023-01-13T10:41:15.107Z,9.09
2023-01-13T10:44:07.263Z,9.13
2023-01-13T10:46:49.900Z,9.11
2023-01-13T10:49:36.561Z,9.07
2023-01-13T10:52:23.661Z,9.09
2023-01-13T10:54:54.934Z,9.07
2023-01-13T10:57:27.202Z,9.07
2023-01-13T10:59:54.870Z,9.08
2023-01-13T11:02:30.673Z,9.01
2023-01-13T11:04:58.085Z,9.06
2023-01-13T11:07:34.455Z,9.04
2023-01-13T11:10:09.834Z,8.99
2023-01-13T11:12:51.897Z,8.91
2023-01-13T11:15:25.047Z,8.84
2023-01-13T11:18:00.488Z,8.69
2023-01-13T11:20:42.674Z,8.57
2023-01-13T11:23:21.845Z,8.40
2023-01-13T11:25:54.616Z,8.30
2023-01-13T11:28:29.367Z,8.20
2023-01-13T11:31:25.428Z,8.18
2023-01-13T11:33:59.885Z,8.13
2023-01-13T11:36:39.070Z,8.10
2023-01-13T11:39:21.312Z,8.13
2023-01-13T11:42:15.573Z,8.11
2023-01-13T11:44:58.481Z,8.04
2023-01-13T11:47:26.872Z,7.95
2023-01-13T11:49:53.760Z,7.52
2023-01-13T11:52:47.765Z,7.09
2023-01-13T11:55:34.780Z,7.03
2023-01-13T11:58:26.708Z,6.82
2023-01-13T12:01:05.021Z,6.81
2023-01-13T12:03:45.357Z,6.84
2023-01-13T12:06:20.626Z,6.86
2023-01-13T12:08:47.543Z,6.83
2023-01-13T12:11:27.828Z,6.84
2023-01-13T12:14:17.496Z,6.92
2023-01-13T12:16:50.545Z,6.89
2023-01-13T12:19:32.278Z,6.87
2023-01-13T12:22:20.468Z,6.90
2023-01-13T12:24:58.061Z,6.89
2023-01-13T12:27:44.865Z,6.88
2023-01-13T12:30:45.722Z,6.92
2023-01-13T12:33:28.835Z,6.93
2023-01-13T12:36:07.473Z,6.89
2023-01-13T12:38:45.841Z,6.90
2023-01-13T12:41:36.700Z,6.85
2023-01-13T12:44:19.283Z,6.84
2023-01-13T12:46:58.737Z,6.78
2023-01-13T12:49:35.320Z,6.65
2023-01-13T12:52:12.466Z,6.72
2023-01-13T12:54:44.909Z,6.76
2023-01-13T12:57:21.682Z,6.73
2023-01-13T13:00:00.052Z,6.68
2023-01-13T13:02:38.220Z,6.71
2023-01-13T13:05:27.689Z,6.68
2023-01-13T13:08:21.456Z,6.68
2023-01-13T13:10:57.868Z,6.65
2023-01-13T13:13:40.954Z,6.62
2023-01-13T13:16:25.998Z,6.69
2023-01-13T13:18:53.442Z,6.66
2023-01-13T13:21:19.805Z,6.62
2023-01-13T13:24:03.164Z,6.56
2023-01-13T13:26:45.521Z,6.58
2023-01-13T13:29:37.039Z,6.65
2023-01-13T13:32:23.861Z,6.67
2023-01-13T13:35:14.044Z,6.70
2023-01-13T13:38:08.232Z,6.78
2023-01-13T13:40:59.099Z,6.75
2023-01-13T13:43:45.909Z,6.71
2023-01-13T13:46:48.877Z,6.74
2023-01-13T13:49:16.366Z,6.68
2023-01-13T13:52:03.302Z,6.73
2023-01-13T13:54:31.416Z,6.57
2023-01-13T13:56:59.097Z,6.54
2023-01-13T13:59:28.066Z,6.56
2023-01-13T14:02:03.779Z,6.56
2023-01-13T14:04:33.269Z,6.58
2023-01-13T14:07:04.807Z,6.63
2023-01-13T14:09:41.351Z,6.54
2023-01-13T14:12:20.132Z,6.59
2023-01-13T14:14:47.880Z,6.53
2023-01-13T14:17:34.471Z,6.53
2023-01-13T14:20:07.871Z,6.52
2023-01-13T14:22:34.562Z,6.56
2023-01-13T14:25:02.019Z,6.64
2023-01-13T14:27:30.583Z,6.64
2023-01-13T14:29:59.969Z,6.59
2023-01-13T14:32:33.558Z,6.52
2023-01-13T14:35:00.053Z,6.53
2023-01-13T14:37:37.263Z,6.54
2023-01-13T14:40:04.108Z,6.53
2023-01-13T14:42:31.563Z,6.51
2023-01-13T14:44:58.544Z,6.37
2023-01-13T14:47:29.164Z,6.34
2023-01-13T14:50:10.530Z,6.32
2023-01-13T14:52:50.448Z,6.37
2023-01-13T14:55:38.573Z,6.36
2023-01-13T14:58:22.925Z,6.32
2023-01-13T15:00:51.308Z,6.32
2023-01-13T15:03:20.509Z,6.20
2023-01-13T15:05:49.912Z,6.20
2023-01-13T15:08:17.200Z,6.22
2023-01-13T15:10:59.614Z,6.18
2023-01-13T15:13:28.960Z,6.10
2023-01-13T15:15:57.623Z,6.12
2023-01-13T15:18:24.118Z,6.02
2023-01-13T15:20:53.401Z,6.00
2023-01-13T15:23:20.546Z,6.01
2023-01-13T15:25:48.166Z,5.98
2023-01-13T15:28:19.969Z,6.00
2023-01-13T15:30:47.293Z,5.95
2023-01-13T15:33:14.725Z,5.98
2023-01-13T15:35:49.886Z,5.97
2023-01-13T15:38:18.915Z,5.90
2023-01-13T15:40:46.818Z,5.83
2023-01-13T15:43:50.015Z,5.82
2023-01-13T15:46:38.939Z,5.72
2023-01-13T15:49:23.440Z,5.74
2023-01-13T15:51:49.986Z,5.67
2023-01-13T15:54:16.430Z,5.62
2023-01-13T15:56:42.780Z,5.59
2023-01-13T15:59:17.328Z,5.55
2023-01-13T16:01:44.358Z,5.50
2023-01-13T16:04:10.699Z,5.58
2023-01-13T16:06:37.248Z,5.61
2023-01-13T16:09:05.557Z,5.62
2023-01-13T16:11:31.988Z,5.57
2023-01-13T16:13:58.588Z,5.54
2023-01-13T16:16:26.858Z,5.53
2023-01-13T16:18:53.346Z,5.47
2023-01-13T16:21:20.904Z,5.43
2023-01-13T16:23:48.877Z,5.43
2023-01-13T16:26:26.421Z,5.44
2023-01-13T16:28:55.469Z,5.29
2023-01-13T16:31:21.842Z,5.35
2023-01-13T16:33:48.444Z,5.37
2023-01-13T16:36:17.088Z,5.36
2023-01-13T16:38:43.698Z,5.42
2023-01-13T16:41:10.381Z,5.35
2023-01-13T16:43:37.533Z,5.35
2023-01-13T16:46:16.451Z,5.33
2023-01-13T16:48:42.889Z,5.25
2023-01-13T16:51:09.353Z,5.23
2023-01-13T16:53:35.808Z,5.17
2023-01-13T16:56:02.231Z,5.26
2023-01-13T16:58:28.703Z,5.26
2023-01-13T17:00:55.325Z,5.24
2023-01-13T17:03:21.876Z,5.20
2023-01-13T17:05:48.302Z,5.24
2023-01-13T17:08:17.652Z,5.25
2023-01-13T17:10:45.715Z,5.27
2023-01-13T17:13:16.447Z,5.27
2023-01-13T17:15:44.393Z,5.18
2023-01-13T17:18:13.075Z,5.16
2023-01-13T17:20:39.506Z,5.21
2023-01-13T17:23:05.940Z,5.19
2023-01-13T17:25:32.379Z,5.22
2023-01-13T17:27:59.002Z,5.27
2023-01-13T17:30:25.371Z,5.27
2023-01-13T17:32:51.809Z,5.30
2023-01-13T17:35:24.482Z,5.25
2023-01-13T17:37:54.200Z,5.27
2023-01-13T17:40:20.888Z,5.19
2023-01-13T17:42:47.338Z,5.04
2023-01-13T17:45:13.828Z,5.16
2023-01-13T17:47:40.276Z,5.19
2023-01-13T17:50:07.207Z,5.12
2023-01-13T17:52:34.388Z,5.06
2023-01-13T17:55:00.821Z,5.19
2023-01-13T17:57:28.336Z,5.10
2023-01-13T17:59:54.877Z,5.01
2023-01-13T18:02:21.403Z,5.05
2023-01-13T18:04:47.998Z,4.98
2023-01-13T18:07:14.360Z,5.00
2023-01-13T18:09:40.773Z,4.94
2023-01-13T18:12:07.338Z,4.88
2023-01-13T18:14:34.601Z,4.91
2023-01-13T18:17:01.244Z,4.92
2023-01-13T18:19:46.397Z,4.85
2023-01-13T18:22:32.803Z,4.70
2023-01-13T18:25:18.095Z,4.70
2023-01-13T18:27:44.711Z,4.70
2023-01-13T18:30:12.404Z,4.71
2023-01-13T18:32:39.344Z,4.64
2023-01-13T18:35:10.192Z,4.59
2023-01-13T18:37:39.867Z,4.56
2023-01-13T18:40:09.322Z,4.48
2023-01-13T18:42:51.392Z,4.45
2023-01-13T18:45:24.135Z,4.39
2023-01-13T18:47:53.043Z,4.40
2023-01-13T18:50:19.514Z,4.34
2023-01-13T18:52:46.018Z,4.32
2023-01-13T18:55:12.875Z,4.32
2023-01-13T18:57:42.667Z,4.35
2023-01-13T19:00:16.656Z,4.29
2023-01-13T19:02:44.386Z,4.22
2023-01-13T19:05:10.999Z,4.12
2023-01-13T19:07:37.465Z,4.14
2023-01-13T19:10:05.531Z,4.11
2023-01-13T19:12:33.588Z,4.12
2023-01-13T19:15:01.919Z,4.10
2023-01-13T19:17:33.468Z,4.09
2023-01-13T19:20:00.535Z,4.13
2023-01-13T19:22:30.760Z,4.13
2023-01-13T19:24:58.389Z,4.04
2023-01-13T19:27:27.421Z,4.07
2023-01-13T19:29:57.375Z,4.07
2023-01-13T19:32:24.153Z,4.06
2023-01-13T19:34:51.063Z,4.08
2023-01-13T19:37:18.740Z,4.12
2023-01-13T19:39:45.233Z,4.12
2023-01-13T19:42:30.855Z,4.07
2023-01-13T19:45:16.115Z,4.04
2023-01-13T19:47:45.075Z,4.04
2023-01-13T19:50:13.445Z,3.93
2023-01-13T19:52:40.456Z,3.99
2023-01-13T19:55:07.125Z,3.97
2023-01-13T19:57:33.614Z,4.00
2023-01-13T20:00:00.187Z,4.02
2023-01-13T20:02:31.427Z,3.97
2023-01-13T20:04:59.135Z,3.97
2023-01-13T20:07:28.138Z,3.93
2023-01-13T20:09:56.338Z,3.95
2023-01-13T20:12:24.368Z,3.98
2023-01-13T20:14:51.213Z,3.90
2023-01-13T20:17:20.319Z,3.91
2023-01-13T20:19:46.878Z,3.84
2023-01-13T20:22:14.017Z,3.81
2023-01-13T20:24:40.545Z,3.79
2023-01-13T20:27:07.299Z,3.78
2023-01-13T20:29:33.895Z,3.72
2023-01-13T20:32:00.380Z,3.79
2023-01-13T20:34:26.836Z,3.75
2023-01-13T20:36:53.529Z,3.80
2023-01-13T20:39:23.430Z,3.83
2023-01-13T20:42:08.587Z,3.81
2023-01-13T20:44:35.391Z,3.86
2023-01-13T20:47:02.818Z,3.87
2023-01-13T20:49:30.274Z,3.83
2023-01-13T20:51:57.748Z,3.85
2023-01-13T20:54:25.020Z,3.88
2023-01-13T20:56:51.428Z,3.86
2023-01-13T20:59:17.926Z,3.89
2023-01-13T21:01:44.432Z,3.93
2023-01-13T21:04:11.114Z,3.96
2023-01-13T21:06:37.610Z,3.97
2023-01-13T21:09:04.142Z,3.95
2023-01-13T21:11:49.179Z,3.94
2023-01-13T21:14:37.529Z,3.90
2023-01-13T21:17:04.245Z,3.89
2023-01-13T21:19:30.716Z,3.85
2023-01-13T21:21:57.230Z,3.89
2023-01-13T21:24:24.760Z,3.83
2023-01-13T21:27:00.624Z,3.78
2023-01-13T21:29:27.039Z,3.74
2023-01-13T21:31:54.371Z,3.81
2023-01-13T21:34:20.908Z,3.81
2023-01-13T21:36:47.299Z,3.79
2023-01-13T21:39:16.072Z,3.82
2023-01-13T21:42:01.205Z,3.86
2023-01-13T21:44:46.138Z,3.87
2023-01-13T21:47:36.134Z,3.88
2023-01-13T21:50:04.451Z,3.79
2023-01-13T21:52:30.782Z,3.83
2023-01-13T21:55:15.555Z,3.89
2023-01-13T21:57:45.436Z,4.01
2023-01-13T22:00:12.324Z,4.03
2023-01-13T22:02:38.791Z,4.12
2023-01-13T22:05:08.968Z,4.12
2023-01-13T22:07:37.074Z,4.10
2023-01-13T22:10:05.758Z,4.08
2023-01-13T22:12:32.515Z,4.03
2023-01-13T22:14:58.879Z,4.05
2023-01-13T22:17:27.575Z,4.02
2023-01-13T22:19:57.059Z,4.02
2023-01-13T22:22:24.931Z,4.02
2023-01-13T22:24:53.002Z,4.02
2023-01-13T22:27:22.200Z,4.11
2023-01-13T22:29:49.614Z,4.04
2023-01-13T22:32:16.751Z,4.15
2023-01-13T22:34:43.277Z,4.08
2023-01-13T22:37:10.104Z,4.07
2023-01-13T22:39:36.551Z,4.08
2023-01-13T22:42:03.401Z,3.99
2023-01-13T22:44:29.869Z,4.09
2023-01-13T22:46:56.252Z,4.05
2023-01-13T22:49:23.010Z,3.97
2023-01-13T22:51:49.458Z,3.98
2023-01-13T22:54:18.177Z,3.99
2023-01-13T22:56:44.577Z,4.00
2023-01-13T22:59:13.219Z,4.03
2023-01-13T23:01:40.881Z,4.02
2023-01-13T23:04:07.530Z,3.96
2023-01-13T23:06:34.818Z,3.91
2023-01-13T23:09:01.619Z,3.92
2023-01-13T23:11:30.275Z,3.93
2023-01-13T23:13:59.631Z,3.88
2023-01-13T23:16:27.924Z,3.83
2023-01-13T23:18:54.496Z,3.87
2023-01-13T23:21:26.774Z,3.88
2023-01-13T23:23:54.124Z,3.90
2023-01-13T23:26:21.489Z,3.88
2023-01-13T23:28:48.248Z,3.80
2023-01-13T23:31:20.807Z,3.82
2023-01-13T23:33:48.487Z,3.75
2023-01-13T23:36:20.658Z,3.79
2023-01-13T23:38:47.690Z,3.85
2023-01-13T23:41:16.908Z,3.80
2023-01-13T23:43:43.773Z,3.77
2023-01-13T23:46:12.701Z,3.85
2023-01-13T23:48:39.472Z,3.84
2023-01-13T23:51:10.458Z,3.77
2023-01-13T23:53:43.733Z,3.71
2023-01-13T23:56:16.516Z,3.69
2023-01-13T23:58:43.983Z,3.66
